Time;durP1;ratioP1;P1;durP2;ratioP2;P2;SDS_P1;SDS_P2;PMS_P1;PMS_P2;Temp;Humidity;BMP_temperature;BMP_pressure;BME280_temperature;BME280_humidity;BME280_pressure;Samples;Min_cycle;Max_cycle;Signal;HPM_P1;HPM_P2
2024/04/14 00:00:58;;;;;;;6.13;3.22;;;15.30;99.90;;;-141.84;67.00;19941.88;5449703;26;20296;-68
2024/04/14 00:03:29;;;;;;;3.97;3.20;;;15.30;99.90;;;-141.84;67.51;19980.50;5451075;26;20319;-68
2024/04/14 00:05:56;;;;;;;4.32;3.50;;;15.20;99.90;;;-141.84;68.05;20041.47;5448564;26;20362;-68
2024/04/14 00:08:30;;;;;;;5.13;3.20;;;15.20;99.90;;;-141.84;67.75;20015.03;5450330;26;20246;-68
2024/04/14 00:10:57;;;;;;;5.10;3.38;;;15.20;99.90;;;-141.84;68.06;20010.97;5442689;26;20296;-67
2024/04/14 00:13:31;;;;;;;5.28;3.83;;;15.20;99.90;;;-141.84;68.61;20065.84;5450869;26;20257;-68
2024/04/14 00:15:59;;;;;;;3.70;3.33;;;15.10;99.90;;;-141.84;68.74;20094.31;5449743;26;20361;-69
2024/04/14 00:18:30;;;;;;;4.85;3.47;;;15.10;99.90;;;-141.84;69.29;20130.91;5450207;26;20234;-68
2024/04/14 00:20:58;;;;;;;3.30;3.00;;;15.10;99.90;;;-141.84;68.83;20061.78;5449399;26;20257;-68
2024/04/14 00:23:29;;;;;;;5.10;3.70;;;15.00;99.90;;;-141.84;68.15;19992.69;5449736;26;20250;-68
2024/04/14 00:25:57;;;;;;;4.35;3.50;;;15.10;99.90;;;-141.84;67.96;19966.28;5427821;26;20801;-69
2024/04/14 00:28:28;;;;;;;4.40;3.60;;;15.10;99.90;;;-141.84;67.99;20013.00;5423329;26;20254;-68
2024/04/14 00:30:58;;;;;;;4.72;3.70;;;15.10;99.90;;;-141.84;68.22;19962.19;5412031;26;20258;-69
2024/04/14 00:33:30;;;;;;;4.45;3.15;;;15.10;99.90;;;-141.84;68.83;20092.28;5440477;26;20302;-68
2024/04/14 00:35:57;;;;;;;3.63;3.33;;;15.10;99.90;;;-141.84;69.51;20177.66;5444867;26;20245;-69
2024/04/14 00:38:28;;;;;;;4.28;3.67;;;15.10;99.90;;;-141.84;70.20;20295.53;5430490;26;20285;-69
2024/04/14 00:40:57;;;;;;;4.18;3.72;;;15.00;99.90;;;-141.84;70.80;20435.78;5431555;26;20633;-68
2024/04/14 00:43:28;;;;;;;4.05;3.40;;;14.90;99.90;;;-141.84;70.94;20533.34;5415107;26;20250;-68
2024/04/14 00:45:58;;;;;;;4.00;3.63;;;14.90;99.90;;;-141.84;71.60;20765.09;5430358;26;20280;-69
2024/04/14 00:48:29;;;;;;;5.30;3.78;;;14.90;99.90;;;-141.84;72.42;21124.94;5424588;26;20239;-67
2024/04/14 00:50:59;;;;;;;3.90;3.40;;;14.80;99.90;;;-141.84;72.58;21558.00;5406566;26;20258;-68
2024/04/14 00:53:31;;;;;;;4.57;3.80;;;14.80;99.90;;;-141.84;73.01;21919.94;5433968;26;20263;-68
2024/04/14 00:55:59;;;;;;;3.55;3.25;;;14.80;99.90;;;-141.84;73.45;22080.56;5426989;26;20782;-67
2024/04/14 00:58:30;;;;;;;3.80;3.47;;;14.80;99.90;;;-141.84;73.68;22517.81;5423546;26;20358;-68
2024/04/14 01:01:00;;;;;;;3.53;3.22;;;14.70;99.90;;;-141.84;73.78;22586.97;5431828;26;21104;-67
2024/04/14 01:03:32;;;;;;;5.22;3.40;;;14.70;99.90;;;-141.84;73.80;23144.25;5429635;26;20233;-68
2024/04/14 01:06:01;;;;;;;3.78;3.38;;;14.70;99.90;;;-141.84;73.92;23107.66;5433398;26;20253;-68
2024/04/14 01:08:31;;;;;;;3.40;3.10;;;14.70;99.90;;;-141.84;73.24;22241.22;5426130;26;20361;-68
2024/04/14 01:10:59;;;;;;;3.55;3.25;;;14.80;99.90;;;-141.84;72.38;21021.25;5422487;26;20288;-68
2024/04/14 01:13:29;;;;;;;3.47;3.17;;;14.80;99.90;;;-141.84;72.02;20822.03;5420315;26;20255;-68
2024/04/14 01:15:56;;;;;;;6.18;3.08;;;14.80;99.90;;;-141.84;71.18;20506.94;5430581;26;20587;-68
2024/04/14 01:18:31;;;;;;;3.25;2.95;;;14.80;99.90;;;-141.84;71.29;20462.22;5434488;26;20238;-68
2024/04/14 01:20:58;;;;;;;3.20;2.90;;;14.80;99.90;;;-141.84;70.65;20271.16;5431199;26;20265;-68
2024/04/14 01:23:29;;;;;;;3.10;2.80;;;14.90;99.90;;;-141.84;69.67;20096.34;5417434;26;20297;-68
2024/04/14 01:25:59;;;;;;;3.35;2.47;;;14.90;99.90;;;-141.84;69.36;20021.16;5419262;26;20281;-68
2024/04/14 01:28:29;;;;;;;3.13;2.80;;;14.90;99.90;;;-141.84;68.58;19958.13;5443862;26;20669;-68
2024/04/14 01:30:57;;;;;;;2.72;2.53;;;14.90;99.90;;;-141.84;68.31;19923.59;5434672;26;20833;-68
2024/04/14 01:33:28;;;;;;;3.33;2.78;;;15.00;99.90;;;-141.84;68.41;19923.59;5434019;26;20674;-67
2024/04/14 01:35:55;;;;;;;3.22;2.92;;;15.00;99.90;;;-141.84;68.47;19992.69;5432187;26;20328;-67
2024/04/14 01:38:28;;;;;;;3.80;2.60;;;15.00;99.90;;;-141.84;68.71;20004.88;5433832;26;20350;-68
2024/04/14 01:40:59;;;;;;;2.80;2.60;;;15.00;99.90;;;-141.84;69.28;20029.28;5429305;26;20247;-68
2024/04/14 01:43:33;;;;;;;3.30;3.00;;;15.00;99.90;;;-141.84;69.21;20023.19;5419535;26;20646;-68
2024/04/14 01:46:00;;;;;;;2.80;2.60;;;15.00;99.90;;;-141.84;69.28;20055.69;5432428;26;20249;-68
2024/04/14 01:48:31;;;;;;;3.20;2.88;;;14.90;99.90;;;-141.84;69.57;20078.06;5428699;26;20683;-67
2024/04/14 01:50:58;;;;;;;2.53;2.33;;;14.90;99.90;;;-141.84;69.59;20059.75;5427137;26;20325;-67
2024/04/14 01:53:29;;;;;;;2.72;2.53;;;14.90;99.90;;;-141.84;67.94;19939.84;5428541;26;20352;-67
2024/04/14 01:55:59;;;;;;;2.45;2.25;;;15.00;99.90;;;-141.84;67.73;19874.81;5430682;26;20345;-68
2024/04/14 01:58:30;;;;;;;3.20;2.67;;;15.00;99.90;;;-141.84;66.27;19834.16;5434593;26;20245;-68
2024/04/14 02:00:58;;;;;;;2.50;2.30;;;15.10;99.90;;;-141.84;66.47;19809.78;5432394;26;20249;-68
2024/04/14 02:03:28;;;;;;;3.22;2.30;;;15.10;99.90;;;-141.84;66.31;19826.03;5432131;26;20238;-67
2024/04/14 02:05:56;;;;;;;2.90;2.50;;;15.20;99.90;;;-141.84;66.15;19815.88;5437120;26;20345;-68
2024/04/14 02:08:30;;;;;;;3.88;2.50;;;15.20;99.90;;;-141.84;64.97;19793.50;5430011;26;20592;-68
2024/04/14 02:11:00;;;;;;;4.60;2.63;;;15.20;99.90;;;-141.84;65.16;19793.50;5429938;26;20288;-68
2024/04/14 02:13:31;;;;;;;2.60;2.40;;;15.20;99.90;;;-141.84;64.33;19795.53;5440130;26;20361;-68
2024/04/14 02:16:00;;;;;;;2.50;2.30;;;15.30;99.90;;;-141.84;64.10;19779.28;5432065;26;20293;-67
2024/04/14 02:18:30;;;;;;;3.03;2.35;;;15.30;99.90;;;-141.84;65.28;19813.84;5432620;26;20230;-67
2024/04/14 02:20:58;;;;;;;2.80;2.60;;;15.30;99.90;;;-141.84;65.30;19811.81;5436463;26;20261;-68
2024/04/14 02:23:32;;;;;;;3.50;2.50;;;15.30;99.90;;;-141.84;64.55;19795.53;5427159;26;20259;-67
2024/04/14 02:26:02;;;;;;;2.90;2.40;;;15.30;99.90;;;-141.84;64.96;19799.63;5436025;26;20251;-68
2024/04/14 02:28:32;;;;;;;2.42;2.22;;;15.30;99.90;;;-141.84;65.70;19795.53;5441626;26;20253;-67
2024/04/14 02:31:00;;;;;;;2.50;2.30;;;15.30;99.90;;;-141.84;64.85;19791.47;5430008;26;20303;-67
2024/04/14 02:33:30;;;;;;;2.50;2.20;;;15.30;99.90;;;-141.84;64.57;19787.41;5434372;26;20282;-67
2024/04/14 02:36:00;;;;;;;2.88;2.40;;;15.30;99.90;;;-141.84;64.80;19815.88;5429962;26;20718;-68
2024/04/14 02:38:33;;;;;;;2.85;2.40;;;15.30;99.90;;;-141.84;64.60;19821.97;5432953;26;20725;-68
2024/04/14 02:41:05;;;;;;;2.58;2.00;;;15.30;99.90;;;-141.84;65.36;19803.69;5414191;26;20491;-69
2024/04/14 02:43:35;;;;;;;2.75;2.40;;;15.30;99.90;;;-141.84;65.30;19815.88;5426282;26;20257;-69
2024/04/14 02:46:03;;;;;;;2.63;2.25;;;15.30;99.90;;;-141.84;65.54;19828.06;5431096;26;20249;-68
2024/04/14 02:48:33;;;;;;;3.33;2.28;;;15.30;99.90;;;-141.84;64.69;19803.69;5426594;26;20269;-68
2024/04/14 02:51:01;;;;;;;2.72;2.35;;;15.30;99.90;;;-141.84;64.50;19803.69;5428990;26;20281;-69
2024/04/14 02:53:32;;;;;;;2.63;2.30;;;15.40;99.90;;;-141.84;63.12;19765.06;5427373;26;20289;-68
2024/04/14 02:56:03;;;;;;;3.08;2.42;;;15.50;99.90;;;-141.84;63.11;19819.94;5418757;26;20326;-68
2024/04/14 02:58:33;;;;;;;3.33;2.17;;;15.50;99.90;;;-141.84;63.06;19785.38;5430910;26;20628;-68
2024/04/14 03:01:02;;;;;;;2.60;2.40;;;15.60;99.90;;;-141.84;62.56;19817.91;5437437;26;20254;-68
2024/04/14 03:03:32;;;;;;;2.47;2.28;;;15.60;99.90;;;-141.84;62.88;19803.69;5425495;26;20703;-69
2024/04/14 03:06:00;;;;;;;2.90;2.13;;;15.60;99.90;;;-141.84;63.75;19783.34;5426430;26;20265;-68
2024/04/14 03:08:31;;;;;;;3.55;2.47;;;15.60;99.90;;;-141.84;63.56;19769.13;5421379;26;20267;-68
2024/04/14 03:11:02;;;;;;;3.90;2.50;;;15.60;99.90;;;-141.84;64.62;19807.75;5430241;26;20263;-68
2024/04/14 03:13:33;;;;;;;2.55;2.35;;;15.50;99.90;;;-141.84;64.77;19828.06;5425616;26;20259;-68
2024/04/14 03:16:02;;;;;;;3.55;2.17;;;15.40;99.90;;;-141.84;65.46;19842.28;5408550;26;20266;-68
2024/04/14 03:18:33;;;;;;;3.38;2.50;;;15.40;99.90;;;-141.84;65.21;19844.31;5427785;26;20238;-67
2024/04/14 03:21:02;;;;;;;4.25;2.30;;;15.30;99.90;;;-141.84;64.71;19832.13;5430278;26;20288;-67
2024/04/14 03:23:34;;;;;;;2.47;2.15;;;15.50;99.90;;;-141.84;65.27;19821.97;5447966;26;20341;-68
2024/04/14 03:26:04;;;;;;;2.58;2.28;;;15.40;99.90;;;-141.84;65.80;19824.00;5434685;26;20265;-67
2024/04/14 03:28:34;;;;;;;2.25;2.05;;;15.40;99.90;;;-141.84;65.08;19817.91;5432120;26;20251;-67
2024/04/14 03:31:02;;;;;;;2.63;2.42;;;15.40;99.90;;;-141.84;66.02;19848.38;5434756;26;20249;-67
2024/04/14 03:33:33;;;;;;;2.80;2.42;;;15.30;99.90;;;-141.84;64.74;19834.16;5438768;26;20307;-68
2024/04/14 03:36:02;;;;;;;2.60;2.33;;;15.40;99.90;;;-141.84;65.51;19854.50;5410773;26;20246;-68
2024/04/14 03:38:32;;;;;;;2.60;2.13;;;15.40;99.90;;;-141.84;66.05;19862.63;5435989;26;20369;-68
2024/04/14 03:41:05;;;;;;;2.45;2.20;;;15.30;99.90;;;-141.84;66.71;19891.06;5443052;26;20246;-68
2024/04/14 03:43:36;;;;;;;2.70;2.50;;;15.30;99.90;;;-141.84;66.71;19876.84;5415218;26;20247;-68
2024/04/14 03:46:08;;;;;;;4.63;2.70;;;15.20;99.90;;;-141.84;66.96;19905.28;5431279;26;20300;-68
2024/04/14 03:48:38;;;;;;;2.50;2.30;;;15.20;99.90;;;-141.84;67.73;19931.72;5419604;26;20285;-68
2024/04/14 03:51:11;;;;;;;3.13;2.45;;;15.10;99.90;;;-141.84;67.99;19943.91;5436928;26;20226;-69
2024/04/14 03:53:43;;;;;;;3.60;2.50;;;15.10;99.90;;;-141.84;68.48;19970.34;5432178;26;20333;-68
2024/04/14 03:56:18;;;;;;;2.67;2.47;;;15.00;99.90;;;-141.84;68.94;20021.16;5421389;26;20255;-68
2024/04/14 03:58:52;;;;;;;2.47;2.25;;;15.00;99.90;;;-141.84;69.86;20120.75;5418250;26;20259;-68
2024/04/14 04:01:19;;;;;;;2.10;1.90;;;15.00;99.90;;;-141.84;69.31;20098.38;5409559;26;20864;-68
2024/04/14 04:03:49;;;;;;;3.20;2.42;;;14.90;99.90;;;-141.84;70.35;20228.47;5423894;26;20243;-68
2024/04/14 04:06:17;;;;;;;2.70;2.50;;;14.90;99.90;;;-141.84;70.39;20275.22;5430410;26;20227;-68
2024/04/14 04:08:51;;;;;;;2.55;2.08;;;14.80;99.90;;;-141.84;71.13;20397.16;5435246;26;20857;-68
2024/04/14 04:11:21;;;;;;;2.63;2.33;;;14.80;99.90;;;-141.84;71.08;20456.13;5432128;26;20264;-68
2024/04/14 04:13:51;;;;;;;3.72;2.33;;;14.70;99.90;;;-141.84;70.80;20387.00;5430576;26;20375;-67
2024/04/14 04:16:19;;;;;;;2.45;2.17;;;14.80;99.90;;;-141.84;71.51;20529.28;5437284;26;20367;-68
2024/04/14 04:18:49;;;;;;;2.70;2.50;;;14.70;99.90;;;-141.84;71.39;20582.16;5425702;26;20277;-67
2024/04/14 04:21:16;;;;;;;2.83;2.60;;;14.60;99.90;;;-141.84;71.73;20748.84;5432179;26;20733;-68
2024/04/14 04:23:46;;;;;;;3.70;2.45;;;14.70;99.90;;;-141.84;72.54;21122.91;5436294;26;20607;-68
2024/04/14 04:26:13;;;;;;;3.53;2.75;;;14.60;99.90;;;-141.84;72.42;21175.75;5430141;26;20289;-68
2024/04/14 04:28:46;;;;;;;3.30;2.60;;;14.60;99.90;;;-141.84;72.86;21637.28;5439455;26;20734;-68
2024/04/14 04:31:13;;;;;;;3.85;2.80;;;14.60;99.90;;;-141.84;73.06;21732.84;5414764;26;20247;-67
2024/04/14 04:33:44;;;;;;;4.93;3.05;;;14.60;99.90;;;-141.84;73.37;22048.03;5428181;26;20235;-68
2024/04/14 04:36:13;;;;;;;4.18;2.60;;;14.60;99.90;;;-141.84;73.00;21661.69;5415891;26;20331;-68
2024/04/14 04:38:44;;;;;;;3.22;2.83;;;14.60;99.90;;;-141.84;71.55;20710.22;5421285;26;20262;-67
2024/04/14 04:41:12;;;;;;;3.03;2.42;;;14.70;99.90;;;-141.84;71.48;20476.44;5417031;26;20274;-67
2024/04/14 04:43:43;;;;;;;2.50;2.30;;;14.80;99.90;;;-141.84;72.03;20840.31;5430285;26;20247;-67
2024/04/14 04:46:13;;;;;;;3.70;2.50;;;14.80;99.90;;;-141.84;72.15;21013.13;5425991;26;20363;-68
2024/04/14 04:48:43;;;;;;;3.15;2.50;;;14.80;99.90;;;-141.84;72.30;21149.31;5431090;26;20902;-66
2024/04/14 04:51:14;;;;;;;4.57;2.65;;;14.80;99.90;;;-141.84;72.51;21279.44;5436602;26;20230;-67
2024/04/14 04:53:41;;;;;;;3.75;2.80;;;14.90;99.90;;;-141.84;72.35;21045.63;5436377;26;20591;-67
2024/04/14 04:56:11;;;;;;;3.40;3.10;;;14.90;99.90;;;-141.84;72.29;21220.47;5435949;26;20781;-67
2024/04/14 04:58:38;;;;;;;3.60;2.95;;;14.90;99.90;;;-141.84;72.34;21151.34;5428730;26;20284;-68
2024/04/14 05:01:08;;;;;;;6.13;2.72;;;15.00;99.90;;;-141.84;70.85;20395.13;5436279;26;20340;-67
2024/04/14 05:03:39;;;;;;;3.15;2.85;;;15.10;99.90;;;-141.84;70.56;20397.16;5427868;26;20329;-67
2024/04/14 05:06:09;;;;;;;3.28;2.88;;;15.10;99.90;;;-141.84;70.71;20464.25;5427768;26;20231;-67
2024/04/14 05:08:36;;;;;;;3.10;2.60;;;15.20;99.90;;;-141.84;70.68;20374.81;5433864;26;20457;-68
2024/04/14 05:11:07;;;;;;;2.75;2.55;;;15.30;99.90;;;-141.84;70.95;20553.69;5430182;26;20262;-68
2024/04/14 05:13:36;;;;;;;3.00;2.80;;;15.30;99.90;;;-141.84;70.36;20342.28;5422492;26;20327;-68
2024/04/14 05:16:09;;;;;;;4.43;2.95;;;15.50;99.90;;;-141.84;69.71;20212.19;5413442;26;20301;-68
2024/04/14 05:18:39;;;;;;;3.22;2.92;;;15.50;99.90;;;-141.84;70.06;20275.22;5423303;26;20837;-66
2024/04/14 05:21:13;;;;;;;3.85;3.33;;;15.50;99.90;;;-141.84;68.69;20100.41;5435292;26;20231;-67
2024/04/14 05:23:41;;;;;;;3.67;3.28;;;15.60;99.90;;;-141.84;68.91;20126.84;5434286;26;20311;-68
2024/04/14 05:26:11;;;;;;;3.25;2.78;;;15.70;99.90;;;-141.84;68.78;20098.38;5401076;26;20267;-70
2024/04/14 05:28:39;;;;;;;4.75;3.00;;;15.80;99.90;;;-141.84;68.36;20074.00;5424553;26;20265;-72
2024/04/14 05:31:09;;;;;;;3.33;2.80;;;16.00;99.90;;;-141.84;66.94;19990.66;5431143;26;20288;-68
2024/04/14 05:33:39;;;;;;;5.78;3.33;;;16.10;99.90;;;-141.84;65.72;19962.19;5431717;26;20246;-68
2024/04/14 05:36:09;;;;;;;3.72;3.22;;;16.30;99.90;;;-141.84;65.38;19962.19;5439203;26;20231;-68
2024/04/14 05:38:37;;;;;;;4.28;3.45;;;16.50;99.90;;;-141.84;64.44;19919.53;5424970;26;20289;-68
2024/04/14 05:41:08;;;;;;;4.32;3.10;;;16.60;99.90;;;-141.84;63.61;19923.59;5432826;26;20255;-67
2024/04/14 05:43:36;;;;;;;3.20;2.90;;;16.60;99.90;;;-141.84;61.86;19919.53;5430151;26;20357;-68
2024/04/14 05:46:06;;;;;;;4.82;3.10;;;16.80;99.90;;;-141.84;61.96;19925.63;5423656;26;20363;-68
2024/04/14 05:48:38;;;;;;;4.68;3.33;;;16.90;99.90;;;-141.84;62.55;19909.34;5434145;26;20230;-68
2024/04/14 05:51:08;;;;;;;3.60;3.10;;;16.90;99.90;;;-141.84;62.32;19911.41;5430662;26;20278;-69
2024/04/14 05:53:36;;;;;;;3.80;3.33;;;17.00;99.90;;;-141.84;62.29;19950.00;5438694;26;20253;-68
2024/04/14 05:56:07;;;;;;;3.72;3.42;;;17.10;99.90;;;-141.84;62.03;19923.59;5420803;26;20349;-68
2024/04/14 05:58:35;;;;;;;3.97;3.33;;;17.20;99.90;;;-141.84;61.85;19935.78;5424505;26;20266;-67
2024/04/14 06:01:08;;;;;;;4.18;3.70;;;17.30;99.90;;;-141.84;60.60;19931.72;5421570;26;20815;-68
2024/04/14 06:03:41;;;;;;;4.20;3.38;;;17.30;99.90;;;-141.84;60.59;19958.13;5423368;26;20333;-66
2024/04/14 06:06:09;;;;;;;3.70;3.30;;;17.40;99.90;;;-141.84;60.61;19923.59;5417293;26;20352;-68
2024/04/14 06:08:38;;;;;;;3.92;3.53;;;17.40;99.90;;;-141.84;58.45;19943.91;5438415;26;20257;-59
2024/04/14 06:11:09;;;;;;;4.35;3.60;;;17.50;99.90;;;-141.84;58.44;19943.91;5436211;26;20284;-60
2024/04/14 06:13:39;;;;;;;4.40;3.58;;;17.50;99.90;;;-141.84;57.91;19935.78;5426023;26;20347;-59
2024/04/14 06:16:08;;;;;;;4.07;3.35;;;17.50;99.90;;;-141.84;58.21;19947.97;5431055;26;20296;-60
2024/04/14 06:18:41;;;;;;;4.78;3.42;;;17.60;99.90;;;-141.84;58.26;19996.75;5418023;26;20247;-61
2024/04/14 06:21:09;;;;;;;4.55;4.10;;;17.60;99.90;;;-141.84;57.76;19976.44;5433303;26;20275;-59
2024/04/14 06:23:40;;;;;;;4.68;3.95;;;17.70;99.90;;;-141.84;57.57;19982.53;5439409;26;20300;-60
2024/04/14 06:26:07;;;;;;;4.03;3.67;;;17.60;99.90;;;-141.84;58.10;19988.63;5447499;26;20288;-60
2024/04/14 06:28:37;;;;;;;4.95;3.92;;;17.70;99.90;;;-141.84;57.46;19974.41;5446636;26;20325;-61
2024/04/14 06:31:05;;;;;;;4.88;4.05;;;17.70;99.90;;;-141.84;55.77;20023.19;5448216;26;20258;-60
2024/04/14 06:33:35;;;;;;;5.95;4.20;;;17.90;99.90;;;-141.84;54.98;20029.28;5447364;26;20226;-59
2024/04/14 06:36:11;;;;;;;5.97;4.00;;;18.00;99.90;;;-141.84;53.75;20074.00;5445606;26;20238;-59
2024/04/14 06:38:44;;;;;;;4.18;3.70;;;18.10;99.90;;;-141.84;51.75;20090.25;5451621;26;20264;-60
2024/04/14 06:41:14;;;;;;;4.88;3.72;;;18.20;99.90;;;-141.84;51.93;20061.78;5442912;26;21110;-59
2024/04/14 06:43:41;;;;;;;5.85;3.63;;;18.10;99.90;;;-141.84;50.69;20080.09;5447431;26;20865;-60
2024/04/14 06:46:12;;;;;;;5.50;3.67;;;18.10;99.90;;;-141.84;50.06;20078.06;5446350;26;20853;-60
2024/04/14 06:48:39;;;;;;;4.88;3.80;;;18.10;99.90;;;-141.84;50.16;20096.34;5448306;26;20934;-60
2024/04/14 06:51:12;;;;;;;4.88;3.30;;;18.10;99.90;;;-141.84;49.60;20067.88;5447982;26;20226;-59
2024/04/14 06:53:39;;;;;;;4.45;3.50;;;18.00;99.90;;;-141.84;50.05;20100.41;5450946;26;20276;-60
2024/04/14 06:56:09;;;;;;;4.22;3.35;;;17.80;99.90;;;-141.84;50.11;20080.09;5449993;26;20249;-59
2024/04/14 06:58:37;;;;;;;5.43;3.03;;;17.70;99.90;;;-141.84;50.08;20071.97;5449438;26;20265;-59
2024/04/14 07:01:07;;;;;;;5.78;3.30;;;17.70;99.90;;;-141.84;50.05;20067.88;5445544;26;20257;-60
2024/04/14 07:03:35;;;;;;;4.68;2.90;;;17.80;99.90;;;-141.84;49.90;20082.13;5457574;26;20351;-58
2024/04/14 07:06:05;;;;;;;6.93;3.13;;;17.80;99.90;;;-141.84;49.17;20063.81;5450367;26;20250;-60
2024/04/14 07:08:35;;;;;;;6.28;3.35;;;17.80;99.90;;;-141.84;49.26;20094.31;5461353;26;20609;-60
2024/04/14 07:11:09;;;;;;;6.95;3.25;;;17.80;99.90;;;-141.84;49.63;20094.31;5450606;26;20349;-60
2024/04/14 07:13:38;;;;;;;5.68;3.20;;;17.70;99.90;;;-141.84;49.27;20090.25;5449425;26;20262;-68
2024/04/14 07:16:09;;;;;;;6.30;3.40;;;17.80;99.90;;;-141.84;49.34;20059.75;5450655;26;20749;-68
2024/04/14 07:18:37;;;;;;;4.68;2.88;;;17.70;99.90;;;-141.84;49.57;20065.84;5449650;26;20272;-67
2024/04/14 07:21:07;;;;;;;6.07;3.33;;;17.70;99.90;;;-141.84;49.05;20078.06;5450116;26;20265;-68
2024/04/14 07:23:38;;;;;;;4.63;3.28;;;17.70;99.90;;;-141.84;48.53;20128.88;5447202;26;20269;-67
2024/04/14 07:26:11;;;;;;;5.70;3.20;;;17.80;99.90;;;-141.84;49.21;20074.00;5417525;26;20259;-68
2024/04/14 07:28:38;;;;;;;9.00;3.53;;;17.80;99.90;;;-141.84;48.94;20114.63;5414461;26;20305;-68
2024/04/14 07:31:08;;;;;;;5.68;3.67;;;17.80;99.90;;;-141.84;48.30;20128.88;5416304;26;20289;-67
2024/04/14 07:33:36;;;;;;;4.82;3.10;;;18.00;99.90;;;-141.84;47.98;20124.81;5415227;26;20523;-66
2024/04/14 07:36:08;;;;;;;4.97;3.13;;;18.00;99.90;;;-141.84;48.43;20134.97;5424854;26;20355;-68
2024/04/14 07:38:38;;;;;;;4.63;3.55;;;18.20;99.90;;;-141.84;47.89;20195.94;5416137;26;20792;-68
2024/04/14 07:41:08;;;;;;;5.78;3.40;;;18.30;99.90;;;-141.84;47.74;20200.00;5417443;26;20266;-67
2024/04/14 07:43:36;;;;;;;5.13;3.25;;;18.40;99.90;;;-141.84;47.98;20228.47;5417636;26;20285;-67
2024/04/14 07:46:07;;;;;;;5.55;3.90;;;18.50;99.90;;;-141.84;47.26;20273.19;5417395;26;20254;-68
2024/04/14 07:48:36;;;;;;;5.40;3.38;;;18.70;99.90;;;-141.84;47.20;20271.16;5410609;26;20227;-66
2024/04/14 07:51:06;;;;;;;5.70;3.70;;;18.80;99.90;;;-141.84;46.67;20315.88;5415677;26;20235;-67
2024/04/14 07:53:34;;;;;;;5.18;3.63;;;18.90;99.90;;;-141.84;47.26;20289.44;5424700;26;21031;-68
2024/04/14 07:56:08;;;;;;;5.72;3.92;;;19.00;99.90;;;-141.84;46.82;20309.75;5416160;26;20340;-68
2024/04/14 07:58:36;;;;;;;6.18;3.58;;;19.00;99.90;;;-141.84;46.57;20313.84;5425025;26;20344;-69
2024/04/14 08:01:06;;;;;;;6.10;3.92;;;18.90;99.90;;;-141.84;46.50;20244.72;5415599;26;20254;-68
2024/04/14 08:03:34;;;;;;;5.30;3.50;;;18.80;99.90;;;-141.84;47.00;20250.81;5415881;26;20734;-68
2024/04/14 08:06:22;;;;;;;3.50;3.15;;;18.70;99.90;;;-141.84;46.91;20260.97;5422825;26;20238;-68
2024/04/14 08:08:52;;;;;;;6.07;3.85;;;18.60;99.90;;;-141.84;46.50;20260.97;5415122;26;20289;-68
2024/04/14 08:11:22;;;;;;;6.05;3.90;;;18.70;99.90;;;-141.84;46.22;20289.44;5416273;26;20290;-67
2024/04/14 08:13:53;;;;;;;5.07;3.85;;;18.80;99.90;;;-141.84;45.64;20330.09;5421268;26;20354;-68
2024/04/14 08:16:21;;;;;;;3.17;2.83;;;18.90;99.90;;;-141.84;45.68;20350.41;5424667;26;20258;-69
2024/04/14 08:18:51;;;;;;;4.68;3.30;;;19.00;99.90;;;-141.84;45.15;20336.19;5425528;26;20328;-67
2024/04/14 08:21:18;;;;;;;3.80;3.28;;;19.10;99.90;;;-141.84;45.08;20380.91;5426576;26;20674;-67
2024/04/14 08:23:48;;;;;;;4.75;3.20;;;19.10;99.90;;;-141.84;44.93;20342.28;5438592;26;20278;-66
2024/04/14 08:26:16;;;;;;;4.65;3.17;;;19.20;99.90;;;-141.84;44.92;20393.09;5412713;26;20316;-67
2024/04/14 08:28:53;;;;;;;4.32;2.92;;;19.20;99.90;;;-141.84;44.84;20395.13;5414551;26;20359;-69
2024/04/14 08:31:20;;;;;;;3.67;2.90;;;19.30;99.90;;;-141.84;44.26;20439.84;5444956;26;20262;-68
2024/04/14 08:33:50;;;;;;;5.32;3.50;;;19.60;99.90;;;-141.84;44.42;20407.34;5434184;26;20227;-60
2024/04/14 08:36:18;;;;;;;4.20;3.00;;;19.60;99.90;;;-141.84;44.38;20447.97;5432955;26;20524;-61
2024/04/14 08:38:52;;;;;;;4.28;3.72;;;19.60;99.90;;;-141.84;43.54;20474.41;5430936;26;20266;-60
2024/04/14 08:41:24;;;;;;;4.70;3.10;;;19.70;99.90;;;-141.84;43.87;20504.91;5435226;26;20253;-61
2024/04/14 08:43:59;;;;;;;4.80;2.78;;;20.00;99.90;;;-141.84;43.48;20529.28;5434503;26;20356;-60
2024/04/14 08:46:30;;;;;;;3.50;2.65;;;20.10;99.90;;;-141.84;42.89;20553.69;5409611;26;20254;-62
2024/04/14 08:49:02;;;;;;;4.80;3.03;;;20.10;99.90;;;-141.84;42.55;20559.78;5413273;26;20328;-60
2024/04/14 08:51:30;;;;;;;4.75;2.33;;;20.20;99.90;;;-141.84;42.72;20513.03;5412414;26;20223;-61
2024/04/14 08:54:01;;;;;;;3.47;2.40;;;20.10;99.90;;;-141.84;42.62;20529.28;5403749;26;20314;-60
2024/04/14 08:56:31;;;;;;;3.70;2.08;;;20.10;99.90;;;-141.84;42.22;20531.31;5413366;26;20609;-60
2024/04/14 08:59:13;;;;;;;4.38;1.90;;;20.10;99.90;;;-141.84;42.23;20464.25;5426817;26;20942;-60
2024/04/14 09:01:41;;;;;;;2.33;1.67;;;19.80;99.90;;;-141.84;41.94;20500.84;5424211;26;20687;-59
2024/04/14 09:04:13;;;;;;;2.72;1.50;;;19.80;99.90;;;-141.84;42.22;20521.16;5412670;26;20601;-60
2024/04/14 09:06:42;;;;;;;2.88;1.80;;;19.80;99.90;;;-141.84;40.84;20559.78;5412917;26;20715;-60
2024/04/14 09:09:13;;;;;;;2.10;1.50;;;19.80;99.90;;;-141.84;41.10;20555.72;5412651;26;20227;-59
2024/04/14 09:11:50;;;;;;;2.45;1.63;;;20.00;99.90;;;-141.84;41.03;20600.44;5410234;26;20266;-60
2024/04/14 09:14:23;;;;;;;3.53;1.80;;;20.10;99.90;;;-141.84;40.31;20596.38;5409926;26;20288;-60
2024/04/14 09:16:51;;;;;;;2.97;2.17;;;20.10;99.90;;;-141.84;41.13;20608.56;5405743;26;20746;-60
2024/04/14 09:19:21;;;;;;;5.93;2.75;;;20.30;99.90;;;-141.84;42.56;20586.22;5412432;26;20640;-60
2024/04/14 09:21:50;;;;;;;6.13;3.10;;;20.20;99.90;;;-141.84;43.11;20584.19;5416855;26;20261;-60
2024/04/14 09:24:20;;;;;;;5.45;3.40;;;20.30;99.90;;;-141.84;43.38;20537.44;5427921;26;20241;-68
2024/04/14 09:26:47;;;;;;;3.67;2.90;;;20.20;99.90;;;-141.84;43.65;20529.28;5425248;26;20284;-68
2024/04/14 09:29:18;;;;;;;4.07;3.10;;;20.20;99.90;;;-141.84;43.76;20541.50;5416434;26;20266;-69
2024/04/14 09:31:48;;;;;;;5.60;3.33;;;20.00;99.90;;;-141.84;43.95;20480.50;5423347;26;20986;-68
2024/04/14 09:34:18;;;;;;;5.28;3.50;;;19.90;99.90;;;-141.84;44.10;20480.50;5443534;26;20592;-70
2024/04/14 09:36:48;;;;;;;6.25;3.30;;;19.80;99.90;;;-141.84;44.79;20439.84;5415354;26;20987;-69
2024/04/14 09:39:21;;;;;;;6.53;3.28;;;19.70;99.90;;;-141.84;44.62;20521.16;5429957;26;20270;-68
2024/04/14 09:41:50;;;;;;;4.97;3.58;;;19.80;99.90;;;-141.84;43.97;20525.22;5431149;26;20297;-70
2024/04/14 09:44:22;;;;;;;9.48;3.10;;;19.90;99.90;;;-141.84;43.84;20527.25;5433939;26;20245;-70
2024/04/14 09:46:52;;;;;;;4.47;3.10;;;19.90;99.90;;;-141.84;43.83;20517.09;5435446;26;20249;-67
2024/04/14 09:49:29;;;;;;;7.70;3.25;;;19.90;99.90;;;-141.84;44.07;20506.94;5402101;26;20729;-70
2024/04/14 09:51:57;;;;;;;5.78;3.00;;;19.80;99.90;;;-141.84;44.02;20529.28;5426832;26;20600;-69
2024/04/14 09:54:31;;;;;;;3.55;2.67;;;19.80;99.90;;;-141.84;43.62;20557.75;5429320;26;20223;-69
2024/04/14 09:56:59;;;;;;;5.25;3.22;;;19.90;99.90;;;-141.84;43.04;20610.59;5439818;26;20635;-69
2024/04/14 09:59:29;;;;;;;4.85;2.78;;;20.10;99.90;;;-141.84;42.56;20657.34;5439221;26;20251;-69
2024/04/14 10:02:00;;;;;;;5.25;3.03;;;20.20;99.90;;;-141.84;41.88;20708.19;5431482;26;20346;-68
2024/04/14 10:04:31;;;;;;;5.55;2.72;;;20.40;99.90;;;-141.84;41.10;20750.88;5412792;26;20292;-68
2024/04/14 10:07:01;;;;;;;3.40;2.78;;;20.70;99.90;;;-141.84;41.56;20730.53;5424604;26;20264;-70
2024/04/14 10:09:34;;;;;;;4.68;3.08;;;20.80;99.90;;;-141.84;40.97;20756.97;5422619;26;20238;-69
2024/04/14 10:12:09;;;;;;;4.00;2.65;;;20.90;99.90;;;-141.84;41.08;20750.88;5411155;26;20737;-70
2024/04/14 10:14:47;;;;;;;5.50;2.78;;;20.90;99.90;;;-141.84;40.65;20763.06;5407848;26;20769;-69
2024/04/14 10:17:20;;;;;;;4.63;2.85;;;21.00;99.90;;;-141.84;40.66;20761.03;5407499;26;20602;-69